Lincoln Park, Illinois
Current Conditions -  °F | °C
As of 12:53 PM on Friday 31 Oct 2014 (Local Time) from KMDW Reporting Station
Light Snow Light Snow  
Wind Chill: 30°   Ceiling: 3800
Heat Index: 42°   Visibility: 8mi
Dew Point: 25°   Wind: 37mph
Humidity: 51%   Direction: 330°NNW
Pressure: 30.13"   Gusts: 48mph
Location:  41.9225°N, 87.651°W
Report Text: KMDW 311753Z 33032G42KT 8SM -SN BKN038 OVC045 06/M04 A3013 RMK AO2 PK WND 33042/1751 SNB34 SLP208 P0000 60000 T00561039 10056 20028 50008
Loading
Personal Weather Stations






























Interactive Weather Map
Tropical Storm Tracking
New forecast layout! Learn more

10-Day Weather Forecast

Advertisements
Track Severe Weather on mobile